Time;durP1;ratioP1;P1;durP2;ratioP2;P2;SDS_P1;SDS_P2;PMS_P1;PMS_P2;Temp;Humidity;BMP_temperature;BMP_pressure;BME280_temperature;BME280_humidity;BME280_pressure;Samples;Min_cycle;Max_cycle;Signal;HPM_P1;HPM_P2
2022/11/26 00:00:45;;;;;;;14.40;5.68;;;;;;;6.04;100.00;102520.38;5010427;28;20053;-68
2022/11/26 00:03:12;;;;;;;24.92;6.28;;;;;;;6.05;100.00;102522.03;4992947;28;20049;-68
2022/11/26 00:05:46;;;;;;;19.55;6.32;;;;;;;6.10;100.00;102529.66;5004010;28;20045;-68
2022/11/26 00:08:21;;;;;;;22.35;7.35;;;;;;;6.07;100.00;102533.22;5018124;28;20054;-67
2022/11/26 00:10:50;;;;;;;14.35;6.88;;;;;;;6.07;100.00;102535.84;5023076;28;20418;-68
2022/11/26 00:13:20;;;;;;;;;;;;;;;6.09;100.00;102538.38;5009092;28;20042;-68
2022/11/26 00:15:47;;;;;;;21.73;7.45;;;;;;;6.05;100.00;102540.28;5008562;28;20305;-68
2022/11/26 00:18:15;;;;;;;20.20;6.68;;;;;;;6.04;100.00;102540.38;5010289;28;20053;-68
2022/11/26 00:20:43;;;;;;;17.65;7.22;;;;;;;6.06;100.00;102539.38;5015044;28;20438;-67
2022/11/26 00:23:19;;;;;;;14.47;6.60;;;;;;;6.06;100.00;102541.16;5001114;28;20050;-67
2022/11/26 00:25:49;;;;;;;21.23;8.50;;;;;;;6.05;100.00;102548.09;5015440;28;20045;-67
2022/11/26 00:28:34;;;;;;;18.30;6.60;;;;;;;6.06;100.00;102547.19;5008709;28;20153;-67
2022/11/26 00:31:14;;;;;;;16.02;7.65;;;;;;;6.04;100.00;102548.19;5011789;28;20049;-67
2022/11/26 00:33:41;;;;;;;15.73;7.13;;;;;;;6.03;100.00;102552.53;5006115;28;20084;-68
2022/11/26 00:36:27;;;;;;;23.08;7.60;;;;;;;6.04;100.00;102559.44;5012457;28;20568;-66
2022/11/26 00:39:13;;;;;;;23.75;8.93;;;;;;;6.01;100.00;102554.38;5018479;28;20054;-67
2022/11/26 00:41:39;;;;;;;18.02;7.75;;;;;;;5.94;100.00;102553.81;5004652;28;20049;-67
2022/11/26 00:44:20;;;;;;;18.85;8.85;;;;;;;5.92;100.00;102549.59;5008422;28;20046;-68
2022/11/26 00:46:48;;;;;;;20.20;8.18;;;;;;;5.89;100.00;102549.75;5005699;28;20049;-68
2022/11/26 00:49:14;;;;;;;19.13;8.32;;;;;;;5.88;100.00;102546.28;5010009;28;20420;-67
2022/11/26 00:51:42;;;;;;;17.25;7.63;;;;;;;5.88;100.00;102551.50;5000879;28;20054;-68
2022/11/26 00:54:15;;;;;;;24.25;8.90;;;;;;;5.89;100.00;102550.56;5006552;28;20046;-68
2022/11/26 00:56:42;;;;;;;23.98;7.20;;;;;;;5.88;100.00;102564.53;5017070;28;20057;-68
2022/11/26 00:59:13;;;;;;;22.15;8.38;;;;;;;5.89;100.00;102553.19;4998420;28;20052;-68
2022/11/26 01:01:40;;;;;;;17.52;7.13;;;;;;;5.86;100.00;102549.88;5018408;28;20049;-69
2022/11/26 01:04:07;;;;;;;16.38;8.35;;;;;;;5.84;100.00;102554.31;5007491;28;20063;-67
2022/11/26 01:06:36;;;;;;;16.55;7.20;;;;;;;5.83;100.00;102558.69;5025497;28;20050;-67
2022/11/26 01:09:04;;;;;;;22.77;8.63;;;;;;;5.81;100.00;102557.06;5024714;28;20769;-68
2022/11/26 01:11:30;;;;;;;22.08;8.48;;;;;;;5.79;100.00;102561.50;5010547;28;20061;-68
2022/11/26 01:13:57;;;;;;;21.98;7.72;;;;;;;5.75;100.00;102560.81;5012508;28;20046;-67
2022/11/26 01:16:27;;;;;;;16.83;7.72;;;;;;;5.78;100.00;102563.25;5015400;28;20057;-67
2022/11/26 01:18:57;;;;;;;18.55;8.07;;;;;;;5.79;100.00;102564.13;5020958;28;20115;-67
2022/11/26 01:21:27;;;;;;;16.02;6.50;;;;;;;5.76;100.00;102567.69;5014316;28;20077;-68
2022/11/26 01:23:53;;;;;;;18.05;7.20;;;;;;;5.66;100.00;102567.28;5022477;28;20053;-68
2022/11/26 01:26:26;;;;;;;13.52;7.00;;;;;;;5.65;100.00;102570.81;5015141;28;20457;-67
2022/11/26 01:28:54;;;;;;;15.10;6.80;;;;;;;5.60;100.00;102571.94;5015004;28;20049;-68
2022/11/26 01:31:26;;;;;;;16.70;6.80;;;;;;;5.56;100.00;102566.03;5008561;28;20053;-67
2022/11/26 01:33:53;;;;;;;16.30;5.82;;;;;;;5.50;100.00;102571.50;5002765;28;20498;-67
2022/11/26 01:36:28;;;;;;;15.35;6.50;;;;;;;5.48;100.00;102574.19;5010352;28;20050;-67
2022/11/26 01:39:02;;;;;;;12.68;5.85;;;;;;;5.45;100.00;102578.69;5012090;28;20049;-67
2022/11/26 01:42:01;;;;;;;14.30;6.68;;;;;;;5.40;100.00;102580.66;5018149;28;20053;-67
2022/11/26 01:44:29;;;;;;;;;;;;;;;5.37;100.00;102576.44;5019143;28;20054;-68
2022/11/26 01:46:55;;;;;;;13.27;6.22;;;;;;;5.27;100.00;102570.81;5016946;28;19925;-68
2022/11/26 01:49:30;;;;;;;14.70;6.82;;;;;;;5.27;100.00;102577.75;5013408;28;20081;-67
2022/11/26 01:52:06;;;;;;;13.38;6.65;;;;;;;5.22;100.00;102566.72;5001539;28;20057;-67
2022/11/26 01:54:35;;;;;;;14.10;5.95;;;;;;;5.17;100.00;102573.88;5003031;28;20054;-68
2022/11/26 01:57:13;;;;;;;13.68;6.40;;;;;;;5.15;100.00;102566.13;5008962;28;20643;-67
2022/11/26 01:59:42;;;;;;;13.80;6.75;;;;;;;5.11;100.00;102565.44;5017974;28;20128;-67
2022/11/26 02:02:09;;;;;;;10.82;5.68;;;;;;;5.09;100.00;102569.03;5008032;28;20046;-67
2022/11/26 02:04:45;;;;;;;15.98;6.47;;;;;;;5.07;100.00;102570.84;5011527;28;20136;-67
2022/11/26 02:07:12;;;;;;;13.18;5.93;;;;;;;4.96;100.00;102576.53;5014687;28;20506;-67
2022/11/26 02:09:39;;;;;;;13.80;5.90;;;;;;;4.93;100.00;102587.88;5007804;28;20049;-68
2022/11/26 02:12:06;;;;;;;14.38;6.40;;;;;;;4.90;100.00;102579.38;5027117;28;20053;-67
2022/11/26 02:14:35;;;;;;;12.40;6.28;;;;;;;4.87;100.00;102579.53;5022759;28;20429;-68
2022/11/26 02:17:08;;;;;;;11.48;5.93;;;;;;;4.77;100.00;102581.66;5022416;28;20107;-67
2022/11/26 02:20:11;;;;;;;12.85;6.40;;;;;;;4.77;100.00;102592.06;5016277;28;20103;-67
2022/11/26 02:22:56;;;;;;;9.88;5.45;;;;;;;4.72;100.00;102584.47;5025795;28;20061;-68
2022/11/26 02:25:58;;;;;;;14.77;6.25;;;;;;;4.68;100.00;102584.66;5016115;28;20049;-68
2022/11/26 02:28:48;;;;;;;11.93;5.88;;;;;;;4.63;100.00;102581.41;5013930;28;20698;-67
2022/11/26 02:31:36;;;;;;;11.73;5.72;;;;;;;4.59;100.00;102591.09;5014278;28;20395;-68
2022/11/26 02:34:20;;;;;;;12.32;6.00;;;;;;;4.55;100.00;102590.38;5019267;28;20052;-68
2022/11/26 02:36:56;;;;;;;13.35;6.20;;;;;;;4.53;100.00;102593.94;5015955;28;20045;-67
2022/11/26 02:39:25;;;;;;;12.43;5.38;;;;;;;4.47;100.00;102597.66;5010715;28;20053;-67
2022/11/26 02:41:59;;;;;;;;;;;;;;;4.47;100.00;102600.25;5017531;28;20055;-67
2022/11/26 02:44:30;;;;;;;15.02;5.47;;;;;;;4.42;100.00;102602.19;5004744;28;19972;-67
2022/11/26 02:47:02;;;;;;;12.50;6.25;;;;;;;4.44;100.00;102607.31;5020871;28;20049;-67
2022/11/26 02:49:32;;;;;;;12.32;5.93;;;;;;;4.40;100.00;102614.38;5013257;28;20045;-66
2022/11/26 02:52:02;;;;;;;17.23;6.47;;;;;;;4.41;100.00;102613.50;5020312;28;20254;-67
2022/11/26 02:54:31;;;;;;;12.95;6.78;;;;;;;4.38;100.00;102608.41;5019692;28;20061;-66
2022/11/26 02:57:00;;;;;;;12.00;6.00;;;;;;;4.34;100.00;102610.28;5015662;28;20053;-66
2022/11/26 02:59:28;;;;;;;10.40;5.75;;;;;;;4.31;100.00;102609.56;5017332;28;20056;-67
2022/11/26 03:02:24;;;;;;;12.60;5.45;;;;;;;4.34;100.00;102614.63;5012130;28;20056;-67
2022/11/26 03:04:55;;;;;;;13.32;5.50;;;;;;;4.32;100.00;102614.69;5008220;28;20050;-67
2022/11/26 03:07:22;;;;;;;12.30;5.80;;;;;;;4.26;100.00;102614.09;5003293;28;20045;-66
2022/11/26 03:09:51;;;;;;;14.10;5.47;;;;;;;4.27;100.00;102618.38;5017807;28;20060;-66
2022/11/26 03:12:18;;;;;;;14.43;5.78;;;;;;;4.22;100.00;102621.19;5013243;28;20398;-66
2022/11/26 03:14:45;;;;;;;10.30;5.82;;;;;;;4.20;100.00;102628.19;5020404;28;20057;-66
2022/11/26 03:17:12;;;;;;;13.27;6.10;;;;;;;4.18;100.00;102626.56;5021595;28;20057;-66
2022/11/26 03:19:38;;;;;;;10.65;5.28;;;;;;;4.15;100.00;102630.94;5006500;28;20528;-67
2022/11/26 03:22:05;;;;;;;9.55;4.97;;;;;;;4.11;100.00;102647.56;5012019;28;20053;-66
2022/11/26 03:24:32;;;;;;;10.90;5.50;;;;;;;4.10;100.00;102640.69;5000651;28;20306;-66
2022/11/26 03:26:58;;;;;;;12.50;5.57;;;;;;;4.05;100.00;102641.75;5021256;28;20059;-67
2022/11/26 03:29:25;;;;;;;10.57;5.60;;;;;;;4.02;100.00;102644.47;5023336;28;20418;-67
2022/11/26 03:31:52;;;;;;;11.90;5.70;;;;;;;4.01;100.00;102643.63;5005376;28;20054;-67
2022/11/26 03:34:19;;;;;;;12.32;5.40;;;;;;;4.00;100.00;102649.75;5015509;28;20132;-67
2022/11/26 03:36:46;;;;;;;12.50;6.10;;;;;;;3.99;100.00;102652.38;5014250;28;20049;-67
2022/11/26 03:39:12;;;;;;;12.18;5.10;;;;;;;3.96;100.00;102656.81;5022183;28;20146;-67
2022/11/26 03:41:42;;;;;;;16.92;5.45;;;;;;;3.95;100.00;102649.06;5014331;28;20048;-67
2022/11/26 03:44:10;;;;;;;15.48;5.55;;;;;;;3.95;100.00;102655.09;5029731;28;20050;-67
2022/11/26 03:46:37;;;;;;;13.77;5.33;;;;;;;3.91;100.00;102661.31;5011585;28;20082;-66
2022/11/26 03:49:04;;;;;;;14.40;5.40;;;;;;;3.88;100.00;102651.06;5005212;28;20474;-67
2022/11/26 03:51:30;;;;;;;10.55;5.00;;;;;;;3.85;100.00;102658.94;5022041;28;20295;-67
2022/11/26 03:53:57;;;;;;;14.00;5.15;;;;;;;3.84;100.00;102661.59;5010626;28;20049;-67
2022/11/26 03:56:23;;;;;;;12.75;5.85;;;;;;;3.83;100.00;102663.34;4998765;28;20053;-67
2022/11/26 03:58:50;;;;;;;11.45;5.38;;;;;;;3.81;100.00;102661.72;5005347;28;20714;-68
2022/11/26 04:01:16;;;;;;;7.97;4.95;;;;;;;3.78;100.00;102660.06;5011404;28;20561;-67
2022/11/26 04:03:42;;;;;;;10.70;5.15;;;;;;;3.76;100.00;102667.06;5009495;28;20106;-67
2022/11/26 04:06:09;;;;;;;12.60;5.72;;;;;;;3.77;100.00;102671.38;5015056;28;20045;-68
2022/11/26 04:08:35;;;;;;;11.10;5.50;;;;;;;3.72;100.00;102666.38;5018918;28;20041;-68
2022/11/26 04:11:02;;;;;;;11.38;5.45;;;;;;;3.71;100.00;102672.44;5015290;28;20111;-67
2022/11/26 04:13:28;;;;;;;10.43;5.03;;;;;;;3.67;100.00;102678.66;5020872;28;20104;-67
2022/11/26 04:15:54;;;;;;;9.93;5.15;;;;;;;3.68;100.00;102677.72;5021966;28;20123;-67
2022/11/26 04:18:21;;;;;;;7.90;4.85;;;;;;;3.69;100.00;102681.19;5012607;28;20127;-67
2022/11/26 04:20:47;;;;;;;13.50;5.30;;;;;;;3.67;100.00;102677.81;5012985;28;20057;-67
2022/11/26 04:23:18;;;;;;;9.75;5.32;;;;;;;3.63;100.00;102684.84;5012891;28;20057;-67
2022/11/26 04:25:45;;;;;;;14.70;5.60;;;;;;;3.61;100.00;102681.47;5024040;28;20108;-68
2022/11/26 04:28:12;;;;;;;11.20;5.03;;;;;;;3.61;100.00;102689.25;5016778;28;20482;-67
2022/11/26 04:30:38;;;;;;;14.05;5.35;;;;;;;3.60;100.00;102686.72;5023367;28;20053;-67
2022/11/26 04:33:05;;;;;;;15.25;4.88;;;;;;;3.59;100.00;102683.28;5016317;28;20374;-67
2022/11/26 04:35:31;;;;;;;11.70;5.20;;;;;;;3.55;100.00;102682.53;5013262;28;20064;-67
2022/11/26 04:37:57;;;;;;;12.95;5.50;;;;;;;3.53;100.00;102683.50;5022006;28;20401;-67
2022/11/26 04:40:24;;;;;;;13.25;4.90;;;;;;;3.50;100.00;102687.03;5016477;28;20050;-68
2022/11/26 04:42:50;;;;;;;13.20;5.20;;;;;;;3.51;100.00;102695.69;5011377;28;20046;-66
2022/11/26 04:45:17;;;;;;;8.63;4.60;;;;;;;3.50;100.00;102696.56;5018920;28;20643;-67
2022/11/26 04:47:43;;;;;;;10.60;5.28;;;;;;;3.43;100.00;102693.38;5017630;28;20053;-67
2022/11/26 04:50:10;;;;;;;10.55;5.55;;;;;;;3.43;100.00;102710.66;5022796;28;20049;-67
2022/11/26 04:52:37;;;;;;;13.25;5.28;;;;;;;3.38;100.00;102710.81;5017511;28;20557;-67
2022/11/26 04:55:03;;;;;;;16.42;6.30;;;;;;;3.40;100.00;102705.59;5019685;28;20678;-68
2022/11/26 04:57:30;;;;;;;10.60;5.20;;;;;;;3.39;100.00;102704.72;5009766;28;20675;-67
2022/11/26 04:59:56;;;;;;;12.13;6.07;;;;;;;3.40;100.00;102708.19;5017548;28;20065;-66
2022/11/26 05:02:23;;;;;;;12.23;5.22;;;;;;;3.42;100.00;102712.41;5018721;28;20053;-67
2022/11/26 05:04:49;;;;;;;11.45;5.45;;;;;;;3.43;100.00;102727.09;5017833;28;20072;-67
2022/11/26 05:07:15;;;;;;;10.55;5.53;;;;;;;3.41;100.00;102726.28;5024906;28;20058;-67
2022/11/26 05:09:42;;;;;;;11.43;5.53;;;;;;;3.42;100.00;102720.19;5019262;28;20057;-68
2022/11/26 05:12:10;;;;;;;12.95;5.47;;;;;;;3.36;100.00;102720.41;5018032;28;20049;-67
2022/11/26 05:14:36;;;;;;;10.60;5.28;;;;;;;3.38;100.00;102713.41;5018994;28;20049;-68
2022/11/26 05:17:03;;;;;;;12.60;5.57;;;;;;;3.32;100.00;102716.22;5029970;28;20213;-68
2022/11/26 05:19:29;;;;;;;14.25;5.30;;;;;;;3.31;100.00;102727.50;5026337;28;20050;-67
2022/11/26 05:21:55;;;;;;;10.98;5.63;;;;;;;3.32;100.00;102718.81;5019031;28;20049;-67
2022/11/26 05:24:22;;;;;;;8.95;5.55;;;;;;;3.30;100.00;102728.41;5023018;28;20047;-67
2022/11/26 05:26:48;;;;;;;12.73;6.03;;;;;;;3.25;100.00;102725.94;5006813;28;20049;-67
2022/11/26 05:29:22;;;;;;;14.45;5.78;;;;;;;3.24;100.00;102720.84;5021662;28;20096;-67
2022/11/26 05:31:48;;;;;;;11.50;5.63;;;;;;;3.23;100.00;102725.16;5024935;28;20054;-68
2022/11/26 05:34:14;;;;;;;13.35;5.35;;;;;;;3.24;100.00;102726.88;5013159;28;20053;-67
2022/11/26 05:36:41;;;;;;;10.50;5.35;;;;;;;3.21;100.00;102718.34;5020495;28;20064;-68
2022/11/26 05:39:07;;;;;;;11.57;5.50;;;;;;;3.19;100.00;102720.97;5013864;28;20052;-67
2022/11/26 05:41:34;;;;;;;9.73;5.47;;;;;;;3.19;100.00;102720.13;5010676;28;20139;-67
2022/11/26 05:44:00;;;;;;;11.20;5.30;;;;;;;3.14;100.00;102721.13;5020466;28;20053;-67
2022/11/26 05:46:27;;;;;;;14.18;5.95;;;;;;;3.14;100.00;102723.72;5015682;28;20173;-67
2022/11/26 05:48:53;;;;;;;14.80;6.22;;;;;;;3.11;100.00;102726.41;5024758;28;20057;-68
2022/11/26 05:51:20;;;;;;;13.55;6.25;;;;;;;3.06;100.00;102735.25;5001242;28;20108;-67
2022/11/26 05:53:47;;;;;;;13.43;5.32;;;;;;;3.02;100.00;102731.94;5016774;28;20045;-68
2022/11/26 05:56:13;;;;;;;14.07;5.63;;;;;;;3.00;100.00;102731.13;5016091;28;20060;-67
2022/11/26 05:58:41;;;;;;;13.73;6.32;;;;;;;3.06;100.00;102738.69;5029932;28;20053;-67
2022/11/26 06:01:08;;;;;;;12.88;6.10;;;;;;;3.02;100.00;102738.84;5022319;28;20049;-67
2022/11/26 06:03:35;;;;;;;13.40;5.78;;;;;;;3.05;100.00;102737.00;5004927;28;20338;-67
2022/11/26 06:06:02;;;;;;;14.50;5.70;;;;;;;3.05;100.00;102739.59;5021628;28;20054;-66
2022/11/26 06:08:29;;;;;;;14.90;6.03;;;;;;;3.02;100.00;102746.63;5004292;28;20458;-66
2022/11/26 06:10:55;;;;;;;9.80;5.75;;;;;;;3.04;100.00;102740.50;5017241;28;20064;-66
2022/11/26 06:13:22;;;;;;;12.68;6.07;;;;;;;3.06;100.00;102746.47;5014695;28;20046;-66
2022/11/26 06:15:48;;;;;;;8.63;5.78;;;;;;;3.04;100.00;102745.69;5015341;28;20077;-66
2022/11/26 06:18:16;;;;;;;12.27;5.38;;;;;;;3.05;100.00;102738.75;5013658;28;20058;-66
2022/11/26 06:20:42;;;;;;;12.00;5.53;;;;;;;3.07;100.00;102750.75;5006086;28;20062;-66
2022/11/26 06:23:09;;;;;;;15.63;5.97;;;;;;;3.07;100.00;102750.75;5002490;28;20057;-67
2022/11/26 06:25:39;;;;;;;11.90;6.03;;;;;;;3.10;100.00;102758.44;5005719;28;20046;-66
2022/11/26 06:28:06;;;;;;;12.35;6.18;;;;;;;3.04;100.00;102752.59;5018460;28;20053;-67
2022/11/26 06:30:32;;;;;;;15.52;5.80;;;;;;;3.01;100.00;102752.72;5018641;28;20057;-66
2022/11/26 06:32:59;;;;;;;12.18;6.13;;;;;;;2.99;100.00;102757.09;5015025;28;20057;-67
2022/11/26 06:35:25;;;;;;;10.00;6.05;;;;;;;2.96;100.00;102761.50;5024295;28;20049;-67
2022/11/26 06:37:51;;;;;;;12.40;5.82;;;;;;;2.94;100.00;102767.59;5017690;28;20785;-67
2022/11/26 06:40:19;;;;;;;12.25;5.63;;;;;;;2.98;100.00;102771.81;5020517;28;20075;-67
2022/11/26 06:42:49;;;;;;;11.88;5.60;;;;;;;2.99;100.00;102777.84;5014118;28;20061;-66
2022/11/26 06:45:17;;;;;;;12.07;6.55;;;;;;;2.98;100.00;102787.38;5021656;28;20065;-66
2022/11/26 06:47:45;;;;;;;11.73;6.68;;;;;;;2.96;100.00;102782.22;5008369;28;20052;-67
2022/11/26 06:50:12;;;;;;;12.85;6.30;;;;;;;2.95;100.00;102787.47;5001217;28;20407;-67
2022/11/26 06:52:38;;;;;;;11.75;6.07;;;;;;;2.92;100.00;102784.94;5002846;28;20088;-67
2022/11/26 06:55:05;;;;;;;14.13;5.68;;;;;;;2.96;100.00;102799.53;5001992;28;20053;-67
2022/11/26 06:57:31;;;;;;;11.95;5.82;;;;;;;2.96;100.00;102797.78;5016456;28;20115;-67
2022/11/26 06:59:58;;;;;;;16.23;6.15;;;;;;;2.95;100.00;102796.06;5024840;28;20053;-67
2022/11/26 07:02:24;;;;;;;11.52;6.13;;;;;;;2.94;100.00;102801.31;5004548;28;20061;-67
2022/11/26 07:04:51;;;;;;;12.85;6.13;;;;;;;2.94;100.00;102798.72;5008236;28;20107;-67
2022/11/26 07:07:17;;;;;;;15.85;6.47;;;;;;;2.93;100.00;102810.84;4997381;28;20132;-67
2022/11/26 07:09:44;;;;;;;13.10;5.88;;;;;;;2.95;100.00;102805.59;5004515;28;20532;-66
2022/11/26 07:12:10;;;;;;;11.77;5.72;;;;;;;2.93;100.00;102804.81;5003820;28;20049;-67
2022/11/26 07:14:37;;;;;;;8.80;6.25;;;;;;;2.88;100.00;102798.91;5012085;28;20517;-67
2022/11/26 07:17:03;;;;;;;10.77;6.00;;;;;;;2.89;100.00;102795.44;5020326;28;20089;-67
2022/11/26 07:19:30;;;;;;;15.13;6.32;;;;;;;2.90;100.00;102797.13;5002457;28;20485;-66
2022/11/26 07:21:56;;;;;;;15.68;6.63;;;;;;;2.90;100.00;102807.47;5011150;28;20049;-67
2022/11/26 07:24:22;;;;;;;15.73;6.43;;;;;;;2.88;100.00;102804.97;5004213;28;20061;-67
2022/11/26 07:26:49;;;;;;;13.05;6.00;;;;;;;2.90;100.00;102810.06;5016974;28;20273;-67
2022/11/26 07:29:16;;;;;;;12.05;5.95;;;;;;;2.89;100.00;102811.81;5016235;28;20049;-66
2022/11/26 07:31:42;;;;;;;10.77;6.22;;;;;;;2.89;100.00;102814.41;5005592;28;20057;-67
2022/11/26 07:34:09;;;;;;;12.38;5.95;;;;;;;2.89;100.00;102811.81;5006122;28;20387;-67
2022/11/26 07:36:39;;;;;;;11.82;5.72;;;;;;;2.91;100.00;102810.03;5003498;28;20100;-67
2022/11/26 07:39:05;;;;;;;12.73;5.22;;;;;;;2.91;100.00;102823.00;5008381;28;20057;-67
2022/11/26 07:41:32;;;;;;;9.40;5.22;;;;;;;2.92;100.00;102827.28;4998863;28;20049;-67
2022/11/26 07:43:58;;;;;;;11.85;5.90;;;;;;;2.95;100.00;102819.41;5010101;28;20568;-67
2022/11/26 07:46:25;;;;;;;10.40;5.32;;;;;;;2.95;100.00;102832.38;5005611;28;20053;-67
2022/11/26 07:48:53;;;;;;;10.65;5.20;;;;;;;2.99;100.00;102832.28;5000940;28;20263;-67
2022/11/26 07:51:22;;;;;;;9.68;5.35;;;;;;;2.92;100.00;102832.47;5019450;28;20061;-67
2022/11/26 07:53:49;;;;;;;7.90;4.78;;;;;;;2.94;100.00;102824.63;5001820;28;20497;-67
2022/11/26 07:56:16;;;;;;;10.65;5.25;;;;;;;2.93;100.00;102833.31;5019553;28;20053;-67
2022/11/26 07:58:42;;;;;;;9.80;5.20;;;;;;;2.94;100.00;102835.00;5003081;28;20057;-66
2022/11/26 08:01:11;;;;;;;9.60;5.82;;;;;;;2.96;100.00;102834.09;5005460;28;20436;-66
2022/11/26 08:03:43;;;;;;;11.93;5.68;;;;;;;3.00;100.00;102828.78;5003365;28;20060;-67
2022/11/26 08:06:12;;;;;;;10.95;5.85;;;;;;;3.00;100.00;102828.78;5009395;28;20430;-67
2022/11/26 08:08:38;;;;;;;12.60;6.55;;;;;;;3.03;100.00;102828.69;5022985;28;20053;-66
2022/11/26 08:11:17;;;;;;;8.13;5.35;;;;;;;3.10;100.00;102832.81;5040076;28;20141;-67
2022/11/26 08:13:45;;;;;;;11.93;5.95;;;;;;;3.12;100.00;102838.78;5011837;28;20053;-66
2022/11/26 08:16:12;;;;;;;8.50;5.32;;;;;;;3.10;100.00;102836.25;5009414;28;20275;-66
2022/11/26 08:18:38;;;;;;;9.00;5.43;;;;;;;3.08;100.00;102832.00;4998875;28;20579;-67
2022/11/26 08:21:05;;;;;;;6.88;5.05;;;;;;;3.10;100.00;102838.00;5012887;28;20553;-67
2022/11/26 08:23:32;;;;;;;11.27;6.22;;;;;;;3.12;100.00;102834.44;5017196;28;20049;-67
2022/11/26 08:26:04;;;;;;;8.98;5.80;;;;;;;3.19;100.00;102836.84;5027146;28;20135;-67
2022/11/26 08:28:51;;;;;;;7.45;5.38;;;;;;;3.17;100.00;102835.16;5022744;28;20049;-67
2022/11/26 08:31:18;;;;;;;6.63;5.00;;;;;;;3.15;100.00;102843.88;5013910;28;20065;-67
2022/11/26 08:33:45;;;;;;;6.45;5.00;;;;;;;3.19;100.00;102847.22;5010877;28;20085;-67
2022/11/26 08:36:12;;;;;;;6.65;4.88;;;;;;;3.21;100.00;102848.84;5025314;28;20136;-67
2022/11/26 08:38:39;;;;;;;7.95;5.25;;;;;;;3.26;100.00;102846.97;5015333;28;20054;-66
2022/11/26 08:41:12;;;;;;;7.65;5.07;;;;;;;3.35;100.00;102845.81;5015585;28;20117;-66
2022/11/26 08:43:39;;;;;;;7.70;5.85;;;;;;;3.38;100.00;102847.47;5010392;28;20053;-66
2022/11/26 08:46:25;;;;;;;8.18;5.28;;;;;;;3.46;100.00;102853.25;5003397;28;20064;-67
2022/11/26 08:48:55;;;;;;;6.35;5.20;;;;;;;3.61;100.00;102852.75;5026389;28;20231;-67
2022/11/26 08:51:21;;;;;;;8.38;5.82;;;;;;;3.70;100.00;102852.44;5016617;28;20099;-67
2022/11/26 08:53:48;;;;;;;12.10;6.25;;;;;;;3.79;100.00;102847.84;5024337;28;20307;-67
2022/11/26 08:56:14;;;;;;;8.35;6.18;;;;;;;3.89;100.00;102850.06;5009585;28;20057;-67
2022/11/26 08:58:47;;;;;;;10.32;6.50;;;;;;;4.02;100.00;102850.50;5012855;28;20064;-67
2022/11/26 09:01:20;;;;;;;11.82;7.38;;;;;;;4.17;100.00;102849.06;5016213;28;20310;-67
2022/11/26 09:03:51;;;;;;;11.35;7.03;;;;;;;4.28;100.00;102849.53;5014947;28;20057;-67
2022/11/26 09:06:20;;;;;;;13.32;8.43;;;;;;;4.38;100.00;102857.00;5014648;28;20449;-66
2022/11/26 09:11:35;;;;;;;11.30;7.50;;;;;;;4.60;100.00;102859.66;5008067;28;20049;-67
2022/11/26 09:14:01;;;;;;;13.50;8.07;;;;;;;4.65;100.00;102855.16;5023278;28;20049;-67
2022/11/26 09:16:29;;;;;;;11.32;7.15;;;;;;;4.74;100.00;102850.44;5011604;28;20099;-67
2022/11/26 09:19:01;;;;;;;10.85;7.28;;;;;;;4.84;100.00;102852.66;5017896;28;20045;-66
2022/11/26 09:21:28;;;;;;;14.43;8.57;;;;;;;4.90;100.00;102855.91;4998670;28;20141;-67
2022/11/26 09:23:55;;;;;;;12.70;8.38;;;;;;;4.98;100.00;102858.19;5014171;28;20409;-67
2022/11/26 09:26:21;;;;;;;13.75;9.35;;;;;;;5.06;100.00;102860.50;5012962;28;20045;-67
2022/11/26 09:28:48;;;;;;;12.63;8.73;;;;;;;5.09;100.00;102863.81;5018877;28;20053;-66
2022/11/26 09:31:15;;;;;;;12.50;8.23;;;;;;;5.14;100.00;102863.66;5014950;28;20111;-67
2022/11/26 09:33:41;;;;;;;11.85;8.55;;;;;;;5.21;100.00;102877.25;5022307;28;20428;-66
2022/11/26 09:36:15;;;;;;;11.70;8.55;;;;;;;5.29;100.00;102877.78;5021569;28;20402;-67
2022/11/26 09:38:42;;;;;;;13.48;8.43;;;;;;;5.33;100.00;102879.34;5017252;28;20524;-67
2022/11/26 09:41:21;;;;;;;13.60;9.05;;;;;;;5.42;100.00;102875.53;5020551;28;20135;-67
2022/11/26 09:44:23;;;;;;;15.65;9.02;;;;;;;5.47;100.00;102870.97;4995258;28;20117;-67
2022/11/26 09:47:08;;;;;;;12.68;8.45;;;;;;;5.58;100.00;102873.16;5026492;28;20053;-67
2022/11/26 09:50:05;;;;;;;14.32;9.30;;;;;;;5.67;100.00;102864.97;5006106;28;20677;-68
2022/11/26 09:52:56;;;;;;;19.70;8.98;;;;;;;5.78;100.00;102877.53;5024634;28;20053;-66
2022/11/26 09:55:30;;;;;;;24.83;10.48;;;;;;;5.86;100.00;102878.03;5013899;28;20049;-67
2022/11/26 09:58:25;;;;;;;28.90;11.05;;;;;;;5.98;100.00;102882.78;5014376;28;20506;-66
2022/11/26 10:00:55;;;;;;;24.50;10.85;;;;;;;6.07;100.00;102891.94;5021742;28;20592;-67
2022/11/26 10:03:36;;;;;;;30.27;10.73;;;;;;;6.19;100.00;102890.56;5035030;28;20060;-67
2022/11/26 10:06:07;;;;;;;31.63;9.88;;;;;;;6.28;100.00;102885.78;5026150;28;20057;-67
2022/11/26 10:08:58;;;;;;;28.52;9.85;;;;;;;6.38;100.00;102886.22;5019771;28;20049;-67
2022/11/26 10:11:36;;;;;;;28.58;9.35;;;;;;;6.45;100.00;102879.84;5019485;28;20056;-67
2022/11/26 10:14:17;;;;;;;26.05;9.75;;;;;;;6.53;100.00;102889.94;5003779;28;20438;-67
2022/11/26 10:17:21;;;;;;;30.92;10.35;;;;;;;6.57;100.00;102888.03;5014419;28;20054;-68
2022/11/26 10:19:53;;;;;;;24.50;8.77;;;;;;;6.64;100.00;102881.59;5011303;28;20062;-66
2022/11/26 10:22:25;;;;;;;28.80;9.15;;;;;;;6.64;100.00;102879.81;5020096;28;20085;-67
2022/11/26 10:24:52;;;;;;;25.25;9.48;;;;;;;6.73;100.00;102881.19;5009754;28;20079;-67
2022/11/26 10:27:19;;;;;;;24.25;9.23;;;;;;;6.78;100.00;102880.97;5020166;28;20053;-68
2022/11/26 10:29:58;;;;;;;23.42;9.32;;;;;;;6.90;100.00;102885.63;5015324;28;20057;-67
2022/11/26 10:32:25;;;;;;;32.63;9.18;;;;;;;6.88;100.00;102883.09;5020496;28;20053;-67
2022/11/26 10:34:57;;;;;;;23.70;9.10;;;;;;;6.96;100.00;102884.47;5026740;28;20110;-67
2022/11/26 10:37:25;;;;;;;26.45;9.52;;;;;;;7.02;100.00;102879.00;5009712;28;20049;-67
2022/11/26 10:39:56;;;;;;;23.17;9.55;;;;;;;7.09;100.00;102873.38;5021248;28;20521;-67
2022/11/26 10:42:39;;;;;;;26.77;9.50;;;;;;;7.16;100.00;102878.31;4997840;28;20056;-67
2022/11/26 10:45:18;;;;;;;20.70;8.00;;;;;;;7.23;100.00;102870.13;5023804;28;20207;-67
2022/11/26 10:47:45;;;;;;;27.17;10.27;;;;;;;7.27;100.00;102873.41;5013232;28;20053;-67
2022/11/26 10:50:22;;;;;;;20.35;8.20;;;;;;;7.35;100.00;102866.06;5018446;28;20073;-67
2022/11/26 10:53:20;;;;;;;20.35;7.95;;;;;;;7.44;100.00;102867.38;5000450;28;20736;-67
2022/11/26 10:55:47;;;;;;;24.88;8.77;;;;;;;7.51;100.00;102867.00;5017458;28;20072;-67
2022/11/26 10:58:18;;;;;;;29.60;9.05;;;;;;;7.59;100.00;102873.63;5018565;28;20054;-67
2022/11/26 11:00:47;;;;;;;24.00;8.48;;;;;;;7.61;100.00;102862.16;5015052;28;20442;-67
2022/11/26 11:03:21;;;;;;;22.30;9.13;;;;;;;7.59;100.00;102864.00;5012649;28;20497;-67
2022/11/26 11:06:17;;;;;;;25.35;8.82;;;;;;;7.69;100.00;102867.00;4989355;28;20251;-66
2022/11/26 11:08:45;;;;;;;21.05;7.78;;;;;;;7.70;100.00;102869.53;5009757;28;20057;-67
2022/11/26 11:11:24;;;;;;;25.63;8.70;;;;;;;7.74;100.00;102867.59;5003263;28;20046;-67
2022/11/26 11:13:52;;;;;;;23.02;8.20;;;;;;;7.82;100.00;102868.06;5015806;28;20046;-66
2022/11/26 11:16:36;;;;;;;24.33;8.40;;;;;;;7.85;100.00;102862.69;5018193;28;20124;-67
2022/11/26 11:19:19;;;;;;;25.10;7.72;;;;;;;7.81;100.00;102865.53;5016133;28;20615;-68
2022/11/26 11:21:46;;;;;;;22.17;8.02;;;;;;;7.82;100.00;102862.84;5007046;28;20065;-68
2022/11/26 11:24:19;;;;;;;18.80;7.38;;;;;;;7.82;100.00;102860.25;5014916;28;20537;-66
2022/11/26 11:26:48;;;;;;;20.45;7.97;;;;;;;7.89;100.00;102850.31;5022413;28;20104;-68
2022/11/26 11:29:33;;;;;;;24.92;8.43;;;;;;;7.93;100.00;102855.28;5013149;28;20053;-67
2022/11/26 11:32:03;;;;;;;21.17;8.07;;;;;;;7.95;100.00;102855.22;5012842;28;20068;-67
2022/11/26 11:34:33;;;;;;;19.02;8.23;;;;;;;8.01;100.00;102848.81;5006507;28;20049;-67
2022/11/26 11:37:24;;;;;;;21.40;7.43;;;;;;;8.11;100.00;102844.78;5006860;28;20059;-67